Time;durP1;ratioP1;P1;durP2;ratioP2;P2;SDS_P1;SDS_P2;PMS_P1;PMS_P2;Temp;Humidity;BMP_temperature;BMP_pressure;BME280_temperature;BME280_humidity;BME280_pressure;Samples;Min_cycle;Max_cycle;Signal;HPM_P1;HPM_P2
2021/10/29 00:01:44;;;;;;;58.15;35.43;;;;;;;9.58;87.58;101058.64;1712865;84;21316;-78
2021/10/29 00:04:51;;;;;;;60.20;35.38;;;;;;;9.59;87.54;101058.13;1712786;84;21723;-75
2021/10/29 00:07:56;;;;;;;58.73;36.17;;;;;;;9.59;87.48;101062.22;1712695;84;21862;-76
2021/10/29 00:11:01;;;;;;;59.20;35.65;;;;;;;9.59;87.40;101064.45;1712927;84;21241;-79
2021/10/29 00:14:07;;;;;;;57.00;35.55;;;;;;;9.60;87.33;101066.70;1712865;84;21288;-76
2021/10/29 00:17:13;;;;;;;62.73;36.70;;;;;;;9.59;87.26;101063.59;1712815;84;21368;-76
2021/10/29 00:20:19;;;;;;;56.33;36.25;;;;;;;9.58;87.23;101060.00;1712761;84;21170;-79
2021/10/29 00:23:25;;;;;;;56.10;35.17;;;;;;;9.58;87.19;101060.00;1712838;84;21320;-79
2021/10/29 00:26:30;;;;;;;63.42;36.25;;;;;;;9.57;87.16;101066.99;1712785;84;21351;-79
2021/10/29 00:29:35;;;;;;;64.30;35.33;;;;;;;9.56;87.12;101059.81;1712893;84;21329;-76
2021/10/29 00:32:40;;;;;;;61.95;37.50;;;;;;;9.55;87.06;101059.44;1712789;84;21388;-79
2021/10/29 00:35:46;;;;;;;50.67;33.05;;;;;;;9.53;87.31;101068.30;1712836;84;21265;-79
2021/10/29 00:38:52;;;;;;;59.03;35.73;;;;;;;9.53;87.54;101062.84;1712883;84;21316;-76
2021/10/29 00:41:57;;;;;;;62.27;36.42;;;;;;;9.53;87.68;101068.30;1712544;84;21335;-76
2021/10/29 00:45:03;;;;;;;58.80;32.63;;;;;;;9.53;87.91;101066.94;1711365;84;21193;-76
2021/10/29 00:48:08;;;;;;;59.80;35.98;;;;;;;9.52;88.05;101053.79;1711547;84;21303;-79
2021/10/29 00:51:14;;;;;;;61.18;37.88;;;;;;;9.53;88.19;101058.75;1712752;84;21279;-79
2021/10/29 00:54:13;;;;;;;62.43;37.73;;;;;;;9.53;88.37;101061.47;1712903;84;21715;-79
2021/10/29 00:57:18;;;;;;;49.77;29.10;;;;;;;9.52;88.43;101064.72;1712560;84;21350;-79
2021/10/29 01:00:23;;;;;;;63.35;36.30;;;;;;;9.50;88.46;101065.35;1712790;84;21284;-78
2021/10/29 01:03:29;;;;;;;56.55;34.20;;;;;;;9.48;88.52;101061.42;1712803;83;21292;-79
2021/10/29 01:06:35;;;;;;;55.73;33.92;;;;;;;9.46;88.57;101063.97;1717928;83;21177;-79
2021/10/29 01:09:40;;;;;;;57.33;33.92;;;;;;;9.45;88.77;101068.54;1717887;83;21280;-76
2021/10/29 01:12:46;;;;;;;66.30;38.25;;;;;;;9.44;88.96;101070.92;1717622;83;21314;-76
2021/10/29 01:15:51;;;;;;;61.55;38.13;;;;;;;9.42;89.28;101066.12;1716739;83;21323;-78
2021/10/29 01:18:56;;;;;;;76.02;39.92;;;;;;;9.39;89.57;101063.69;1716757;83;21331;-79
2021/10/29 01:22:03;;;;;;;67.80;39.75;;;;;;;9.34;89.55;101053.73;1717994;83;21319;-76
2021/10/29 01:25:10;;;;;;;69.62;40.40;;;;;;;9.26;89.43;101050.87;1717998;83;21311;-76
2021/10/29 01:28:19;;;;;;;72.42;42.33;;;;;;;9.16;89.46;101045.45;1717219;83;21316;-79
2021/10/29 01:31:25;;;;;;;76.77;47.27;;;;;;;9.04;89.51;101044.45;1718260;83;21280;-79
2021/10/29 01:34:29;;;;;;;79.27;48.75;;;;;;;8.93;89.71;101050.91;1718115;83;21177;-76
2021/10/29 01:37:40;;;;;;;89.50;46.53;;;;;;;8.81;89.92;101050.75;1717705;83;21829;-79
2021/10/29 01:40:45;;;;;;;91.02;49.08;;;;;;;8.69;90.30;101059.08;1717736;83;21876;-76
2021/10/29 01:43:54;;;;;;;85.42;50.03;;;;;;;8.56;90.85;101057.19;1716840;83;21189;-77
2021/10/29 01:46:59;;;;;;;82.88;50.38;;;;;;;8.47;91.26;101061.25;1718063;83;21352;-79
2021/10/29 01:50:04;;;;;;;89.87;51.63;;;;;;;8.34;91.55;101058.30;1718213;83;21244;-79
2021/10/29 01:53:10;;;;;;;85.20;49.95;;;;;;;8.24;91.91;101063.41;1718263;83;21308;-80
2021/10/29 01:56:15;;;;;;;83.97;51.45;;;;;;;8.14;92.22;101074.30;1718070;83;21257;-76
2021/10/29 01:59:20;;;;;;;90.90;50.70;;;;;;;8.05;92.62;101073.28;1718164;83;21837;-79
2021/10/29 02:02:26;;;;;;;87.88;49.27;;;;;;;7.94;92.96;101071.52;1717721;83;21347;-80
2021/10/29 02:05:31;;;;;;;82.33;47.40;;;;;;;7.84;93.36;101074.73;1714065;83;21343;-76
2021/10/29 02:08:37;;;;;;;84.28;49.53;;;;;;;7.77;93.92;101080.90;1711642;84;21327;-76
2021/10/29 02:11:43;;;;;;;88.35;48.95;;;;;;;7.68;94.43;101079.36;1712717;84;21319;-76
2021/10/29 02:14:49;;;;;;;82.95;47.80;;;;;;;7.61;94.91;101084.98;1711331;83;21175;-76
2021/10/29 02:17:54;;;;;;;82.97;48.60;;;;;;;7.56;95.38;101085.05;1712837;84;21375;-77
2021/10/29 02:20:58;;;;;;;78.52;45.12;;;;;;;7.51;95.95;101087.32;1712769;84;21174;-76
2021/10/29 02:24:03;;;;;;;71.65;45.70;;;;;;;7.47;96.48;101088.59;1712870;84;21315;-76
2021/10/29 02:27:09;;;;;;;72.62;43.73;;;;;;;7.42;96.97;101084.41;1712883;84;21173;-79
2021/10/29 02:30:14;;;;;;;76.82;47.03;;;;;;;7.39;97.45;101092.02;1712990;84;21218;-76
2021/10/29 02:33:19;;;;;;;71.35;46.58;;;;;;;7.37;98.17;101093.49;1712780;84;21327;-76
2021/10/29 02:36:24;;;;;;;75.97;46.77;;;;;;;7.36;98.96;101104.02;1712836;84;21747;-79
2021/10/29 02:39:30;;;;;;;76.25;46.92;;;;;;;7.36;99.49;101111.33;1711994;84;21579;-76
2021/10/29 02:42:34;;;;;;;76.10;47.30;;;;;;;7.34;100.00;101112.84;1712166;84;21311;-77
2021/10/29 02:45:39;;;;;;;78.45;47.10;;;;;;;7.34;100.00;101116.03;1712737;84;21339;-79
2021/10/29 02:48:45;;;;;;;83.62;44.30;;;;;;;7.34;100.00;101112.84;1711295;84;21186;-76
2021/10/29 02:51:50;;;;;;;83.15;47.62;;;;;;;7.34;100.00;101120.11;1712882;84;21153;-79
2021/10/29 02:54:55;;;;;;;75.15;44.73;;;;;;;7.34;100.00;101125.08;1712813;84;21844;-79
2021/10/29 02:57:59;;;;;;;76.30;47.33;;;;;;;7.33;100.00;101132.00;1712867;84;21312;-76
2021/10/29 03:01:05;;;;;;;75.40;48.73;;;;;;;7.29;100.00;101130.55;1712913;84;21272;-76
2021/10/29 03:04:11;;;;;;;78.40;49.23;;;;;;;7.26;100.00;101132.20;1711319;84;21213;-78
2021/10/29 03:07:17;;;;;;;82.40;49.30;;;;;;;7.20;100.00;101139.05;1711649;83;21295;-76
2021/10/29 03:10:24;;;;;;;85.62;45.55;;;;;;;7.14;100.00;101140.92;1711234;83;21226;-76
2021/10/29 03:13:31;;;;;;;80.03;46.90;;;;;;;7.10;100.00;101146.27;1711618;84;21237;-76
2021/10/29 03:16:36;;;;;;;79.32;47.83;;;;;;;7.05;100.00;101142.58;1712903;84;21944;-79
2021/10/29 03:19:41;;;;;;;83.82;48.80;;;;;;;7.03;100.00;101145.94;1712807;84;21319;-79
2021/10/29 03:22:47;;;;;;;76.72;47.50;;;;;;;7.00;100.00;101148.06;1712879;84;21197;-79
2021/10/29 03:25:51;;;;;;;76.30;47.00;;;;;;;6.98;100.00;101147.34;1712877;84;21276;-79
2021/10/29 03:28:57;;;;;;;73.15;47.58;;;;;;;6.98;100.00;101148.70;1712640;84;21319;-78
2021/10/29 03:32:03;;;;;;;78.55;45.63;;;;;;;7.03;100.00;101154.61;1712849;84;21319;-76
2021/10/29 03:35:08;;;;;;;84.03;48.02;;;;;;;7.09;100.00;101158.14;1712784;84;21312;-79
2021/10/29 03:41:25;;;;;;;80.83;47.70;;;;;;;7.24;100.00;101164.97;1712921;84;21740;-77
2021/10/29 03:44:44;;;;;;;87.22;52.00;;;;;;;7.34;100.00;101171.35;1712804;84;21735;-79
2021/10/29 03:47:47;;;;;;;84.25;48.48;;;;;;;7.43;100.00;101165.10;1712856;84;21323;-79
2021/10/29 03:51:00;;;;;;;82.92;48.13;;;;;;;7.54;100.00;101170.09;1712840;84;21853;-76
2021/10/29 03:54:15;;;;;;;79.35;47.38;;;;;;;7.64;100.00;101181.38;1712702;84;21296;-77
2021/10/29 03:57:24;;;;;;;89.25;49.67;;;;;;;7.75;100.00;101183.14;1712808;84;21854;-76
2021/10/29 04:00:30;;;;;;;75.37;47.60;;;;;;;7.85;100.00;101187.27;1711381;84;21185;-79
2021/10/29 04:03:35;;;;;;;83.75;48.15;;;;;;;7.91;100.00;101183.51;1712872;84;21343;-79
2021/10/29 04:06:40;;;;;;;81.67;45.52;;;;;;;7.99;100.00;101183.30;1712970;82;21249;-79
2021/10/29 04:09:45;;;;;;;69.85;43.52;;;;;;;8.04;100.00;101193.28;1712904;84;21323;-76
2021/10/29 04:12:51;;;;;;;72.80;44.05;;;;;;;8.09;100.00;101195.09;1711504;82;21238;-76
2021/10/29 04:15:55;;;;;;;81.37;43.78;;;;;;;8.15;100.00;101191.83;1712850;84;21201;-76
2021/10/29 04:19:00;;;;;;;71.95;42.40;;;;;;;8.18;100.00;101186.08;1712810;84;21872;-79
2021/10/29 04:22:05;;;;;;;83.82;45.73;;;;;;;8.22;100.00;101188.89;1712765;84;21327;-79
2021/10/29 04:25:09;;;;;;;73.62;43.75;;;;;;;8.25;100.00;101189.13;1712893;84;21331;-79
2021/10/29 04:28:15;;;;;;;82.80;46.42;;;;;;;8.27;100.00;101190.69;1712823;84;21312;-76
2021/10/29 04:31:23;;;;;;;73.57;45.58;;;;;;;8.28;100.00;101191.08;1712701;84;21306;-76
2021/10/29 04:34:30;;;;;;;87.12;46.33;;;;;;;8.27;100.00;101197.50;1712795;84;21640;-79
2021/10/29 04:37:35;;;;;;;86.10;45.85;;;;;;;8.25;100.00;101192.71;1712900;84;21212;-76
2021/10/29 04:40:43;;;;;;;82.05;46.75;;;;;;;8.22;100.00;101191.62;1713015;84;21866;-76
2021/10/29 04:43:48;;;;;;;78.95;47.20;;;;;;;8.18;100.00;101196.47;1712825;84;21622;-79
2021/10/29 04:46:53;;;;;;;76.42;44.73;;;;;;;8.16;100.00;101205.81;1712819;84;21826;-76
2021/10/29 04:49:57;;;;;;;81.87;46.73;;;;;;;8.13;100.00;101198.76;1712890;84;21308;-77
2021/10/29 04:53:03;;;;;;;79.05;42.75;;;;;;;8.14;100.00;101207.83;1712864;84;21307;-77
2021/10/29 04:56:08;;;;;;;79.87;47.23;;;;;;;8.14;100.00;101218.73;1712715;84;21516;-76
2021/10/29 04:59:15;;;;;;;78.70;45.85;;;;;;;8.16;100.00;101216.71;1712826;84;21338;-79
2021/10/29 05:02:21;;;;;;;84.10;44.23;;;;;;;8.21;100.00;101219.87;1706611;82;21355;-77
2021/10/29 05:05:27;;;;;;;75.80;45.85;;;;;;;8.27;100.00;101224.77;1740154;82;21277;-80
2021/10/29 05:08:32;;;;;;;69.80;37.50;;;;;;;8.32;100.00;101227.93;1728232;81;21153;-77
2021/10/29 05:11:37;;;;;;;61.02;35.68;;;;;;;8.40;100.00;101229.50;1727030;81;21157;-77
2021/10/29 05:14:43;;;;;;;76.57;42.43;;;;;;;8.49;100.00;101232.39;1710245;84;21363;-79
2021/10/29 05:17:48;;;;;;;72.22;42.43;;;;;;;8.56;100.00;101231.70;1710841;84;21852;-79
2021/10/29 05:20:54;;;;;;;65.17;39.25;;;;;;;8.65;100.00;101244.97;1709371;84;21311;-77
2021/10/29 05:24:00;;;;;;;56.73;34.08;;;;;;;8.71;100.00;101253.97;1710007;83;21850;-80
2021/10/29 05:27:06;;;;;;;61.53;37.88;;;;;;;8.75;100.00;101251.33;1730771;82;21205;-80
2021/10/29 05:30:14;;;;;;;66.17;37.17;;;;;;;8.76;100.00;101265.32;1729655;81;21296;-80
2021/10/29 05:33:19;;;;;;;63.52;35.83;;;;;;;8.77;100.00;101273.86;1730617;81;21312;-80
2021/10/29 05:36:25;;;;;;;44.88;26.62;;;;;;;8.79;100.00;101285.47;1729184;81;21295;-77
2021/10/29 05:39:31;;;;;;;59.38;35.40;;;;;;;8.81;100.00;101281.27;1728400;81;21125;-77
2021/10/29 05:42:36;;;;;;;54.70;32.98;;;;;;;8.82;100.00;101285.71;1721743;81;21714;-77
2021/10/29 05:45:41;;;;;;;49.93;30.85;;;;;;;8.81;100.00;101288.95;1723379;81;21290;-78
2021/10/29 05:48:46;;;;;;;57.43;35.03;;;;;;;8.84;100.00;101286.42;1721829;82;21586;-75
2021/10/29 05:51:52;;;;;;;63.45;37.35;;;;;;;8.86;100.00;101294.84;1736676;81;21636;-75
2021/10/29 05:58:02;;;;;;;65.35;39.90;;;;;;;8.90;100.00;101294.92;1721941;81;21323;-76
2021/10/29 06:01:07;;;;;;;66.22;42.50;;;;;;;8.93;100.00;101300.58;1720945;81;21161;-79
2021/10/29 06:04:13;;;;;;;54.65;35.50;;;;;;;8.91;100.00;101301.23;1725917;82;21306;-76
2021/10/29 06:07:19;;;;;;;66.87;39.30;;;;;;;8.86;100.00;101300.30;1722015;81;21205;-79
2021/10/29 06:10:25;;;;;;;68.57;38.33;;;;;;;8.81;100.00;101308.04;1726469;81;21623;-79
2021/10/29 06:13:31;;;;;;;64.77;40.67;;;;;;;8.80;100.00;101309.05;1725119;81;21206;-76
2021/10/29 06:16:37;;;;;;;69.03;41.45;;;;;;;8.80;100.00;101312.25;1720854;81;21274;-79
2021/10/29 06:19:43;;;;;;;74.35;46.65;;;;;;;8.79;100.00;101311.39;1728297;81;21257;-79
2021/10/29 06:22:52;;;;;;;79.12;44.58;;;;;;;8.80;100.00;101318.59;1723957;81;21194;-78
2021/10/29 06:25:57;;;;;;;77.85;45.10;;;;;;;8.82;100.00;101323.40;1725064;81;21333;-79
2021/10/29 06:29:03;;;;;;;76.25;43.25;;;;;;;8.83;100.00;101325.63;1726732;81;21170;-78
2021/10/29 06:32:09;;;;;;;45.10;28.20;;;;;;;8.83;100.00;101329.72;1729898;81;21245;-79
2021/10/29 06:35:14;;;;;;;50.63;29.77;;;;;;;8.84;100.00;101330.92;1728575;81;21257;-78
2021/10/29 06:38:19;;;;;;;59.63;34.80;;;;;;;8.80;100.00;101342.26;1723483;81;21808;-77
2021/10/29 06:41:24;;;;;;;43.70;29.92;;;;;;;8.73;100.00;101339.75;1727398;81;21304;-77
2021/10/29 06:47:52;;;;;;;58.50;33.20;;;;;;;8.67;100.00;101350.72;1735216;81;21320;-76
2021/10/29 07:01:11;;;;;;;60.20;34.05;;;;;;;8.73;100.00;101363.79;1722805;81;21174;-76
2021/10/29 07:41:36;;;;;;;35.38;21.35;;;;;;;8.61;100.00;101372.59;1677062;83;21332;-76
2021/10/29 07:44:42;;;;;;;51.20;30.15;;;;;;;8.57;100.00;101382.55;1680903;83;21893;-76
2021/10/29 07:47:49;;;;;;;56.73;33.08;;;;;;;8.49;100.00;101381.86;1678590;83;21320;-76
2021/10/29 07:50:49;;;;;;;49.40;28.02;;;;;;;8.48;100.00;101380.14;1679336;83;21198;-76
2021/10/29 07:53:55;;;;;;;43.13;26.50;;;;;;;8.51;100.00;101385.30;1716224;81;21288;-76
2021/10/29 07:57:00;;;;;;;52.13;31.75;;;;;;;8.54;100.00;101391.85;1720564;81;21933;-76
2021/10/29 08:00:04;;;;;;;55.60;34.08;;;;;;;8.58;100.00;101384.27;1724238;81;21284;-78
2021/10/29 08:03:10;;;;;;;58.90;34.38;;;;;;;8.59;100.00;101388.21;1718064;81;21279;-76
2021/10/29 08:06:15;;;;;;;50.12;28.38;;;;;;;8.64;100.00;101392.75;1724650;81;21171;-76
2021/10/29 08:09:20;;;;;;;52.55;31.93;;;;;;;8.66;100.00;101400.31;1715462;81;22279;-75
2021/10/29 08:12:25;;;;;;;59.85;34.78;;;;;;;8.63;100.00;101399.22;1717355;82;21784;-80
2021/10/29 08:15:30;;;;;;;52.95;30.55;;;;;;;8.59;100.00;101400.98;1716180;81;21784;-76
2021/10/29 08:18:43;;;;;;;44.03;25.23;;;;;;;8.59;100.00;101396.90;1715129;83;21175;-76
2021/10/29 08:21:44;;;;;;;46.48;28.20;;;;;;;8.59;100.00;101399.13;1716429;83;21593;-77
2021/10/29 08:24:49;;;;;;;39.40;23.27;;;;;;;8.59;100.00;101401.84;1714705;81;21183;-76
2021/10/29 08:27:54;;;;;;;35.65;20.97;;;;;;;8.63;100.00;101401.95;1715309;81;21167;-76
2021/10/29 08:31:01;;;;;;;39.08;24.12;;;;;;;8.65;100.00;101400.44;1713209;83;21818;-77
2021/10/29 08:34:07;;;;;;;29.85;17.40;;;;;;;8.65;100.00;101407.25;1722400;81;21264;-76
2021/10/29 08:37:15;;;;;;;33.65;21.12;;;;;;;8.66;100.00;101406.27;1713990;82;21336;-78
2021/10/29 08:40:21;;;;;;;45.83;27.55;;;;;;;8.61;100.00;101407.16;1717410;81;21763;-76
2021/10/29 08:43:26;;;;;;;49.58;29.10;;;;;;;8.59;100.00;101400.48;1716797;82;21689;-77
2021/10/29 08:46:35;;;;;;;38.08;22.25;;;;;;;8.61;100.00;101401.70;1716785;81;21272;-76
2021/10/29 08:49:41;;;;;;;47.58;27.85;;;;;;;8.62;100.00;101401.59;1717073;82;21530;-76
2021/10/29 08:52:45;;;;;;;47.43;27.58;;;;;;;8.65;100.00;101408.11;1712214;81;22542;-76
2021/10/29 08:55:53;;;;;;;43.78;25.37;;;;;;;8.70;100.00;101406.34;1699013;83;21205;-80
2021/10/29 08:59:26;;;;;;;37.28;23.65;;;;;;;8.74;100.00;101413.24;1716857;82;21214;-80
2021/10/29 09:02:34;;;;;;;;;;;;;;;8.73;100.00;101408.80;1718386;82;21871;-80
2021/10/29 09:05:45;;;;;;;30.32;18.55;;;;;;;8.72;100.00;101415.77;1717764;82;20209;-80
2021/10/29 09:08:59;;;;;;;33.30;21.50;;;;;;;8.69;100.00;101413.66;1716823;82;21300;-79
2021/10/29 09:15:57;;;;;;;33.75;20.92;;;;;;;8.72;100.00;101416.63;1713697;81;21402;-80
2021/10/29 09:32:13;;;;;;;35.35;22.52;;;;;;;9.15;97.51;101410.87;1715539;81;21329;-80
2021/10/29 09:35:23;;;;;;;33.08;20.57;;;;;;;9.18;96.90;101420.15;1715576;81;21249;-76
2021/10/29 09:38:28;;;;;;;39.98;22.20;;;;;;;9.18;96.17;101419.29;1715339;83;21167;-80
2021/10/29 09:41:35;;;;;;;31.17;22.00;;;;;;;9.17;95.86;101416.17;1714654;82;21893;-77
2021/10/29 09:44:52;;;;;;;31.77;18.73;;;;;;;9.22;95.50;101419.34;1713477;83;21151;-76
2021/10/29 09:48:19;;;;;;;28.50;19.20;;;;;;;9.26;94.44;101414.47;1717619;83;21537;-76
2021/10/29 09:51:23;;;;;;;29.77;18.62;;;;;;;9.31;94.02;101407.58;1718579;81;21297;-80
2021/10/29 09:55:12;;;;;;;26.70;14.87;;;;;;;9.42;93.90;101407.47;1714238;81;21325;-80
2021/10/29 09:58:04;;;;;;;44.60;23.83;;;;;;;9.55;93.43;101422.22;1715457;83;21305;-77
2021/10/29 10:01:09;;;;;;;34.48;22.30;;;;;;;9.63;92.45;101422.34;1717046;81;21348;-76
2021/10/29 10:04:17;;;;;;;35.33;21.77;;;;;;;9.72;92.01;101420.63;1716608;81;21210;-76
2021/10/29 10:07:28;;;;;;;32.85;19.92;;;;;;;9.86;90.99;101420.70;1719957;83;21341;-76
2021/10/29 10:10:33;;;;;;;32.00;19.27;;;;;;;9.95;89.91;101417.09;1725142;81;21182;-77
2021/10/29 10:13:31;;;;;;;29.02;17.87;;;;;;;10.01;88.82;101412.41;1712850;81;21855;-76
2021/10/29 10:16:39;;;;;;;34.20;21.20;;;;;;;10.10;88.13;101414.77;1714294;81;21823;-76
2021/10/29 10:19:44;;;;;;;32.60;20.77;;;;;;;10.19;87.47;101413.38;1712603;81;21202;-77
2021/10/29 10:22:54;;;;;;;35.65;19.67;;;;;;;10.31;86.53;101411.90;1720299;83;21337;-77
2021/10/29 10:26:16;;;;;;;25.67;16.47;;;;;;;10.41;85.75;101412.22;1717742;83;21353;-79
2021/10/29 10:29:49;;;;;;;25.55;17.50;;;;;;;10.54;84.56;101414.64;1719502;83;21329;-80
2021/10/29 10:46:34;;;;;;;20.90;13.95;;;;;;;10.32;82.51;101406.78;1715658;83;21855;-77
2021/10/29 10:49:52;;;;;;;29.90;17.95;;;;;;;10.38;82.96;101404.81;1691597;83;21274;-77
2021/10/29 10:53:18;;;;;;;27.93;18.77;;;;;;;10.40;82.49;101390.50;1718175;83;21943;-80
2021/10/29 10:56:28;;;;;;;28.55;17.67;;;;;;;10.40;82.18;101387.25;1717902;83;21313;-80
2021/10/29 11:06:28;;;;;;;20.57;15.40;;;;;;;10.38;81.93;101399.34;1731758;83;21217;-76
2021/10/29 11:13:13;;;;;;;22.22;16.02;;;;;;;10.33;82.04;101394.83;1715275;83;21185;-80
2021/10/29 11:16:45;;;;;;;24.12;17.05;;;;;;;10.35;81.97;101391.42;1703590;83;21344;-80
2021/10/29 11:19:58;;;;;;;25.95;16.32;;;;;;;10.37;81.94;101394.38;1702311;83;21856;-80
2021/10/29 11:22:56;;;;;;;24.18;14.18;;;;;;;10.37;81.91;101386.17;1702519;84;21325;-81
2021/10/29 11:26:10;;;;;;;30.30;17.20;;;;;;;10.38;82.00;101393.36;1702521;84;21392;-78
2021/10/29 11:29:16;;;;;;;29.30;17.25;;;;;;;10.40;81.74;101392.72;1702548;84;21191;-75
2021/10/29 11:32:23;;;;;;;22.35;14.87;;;;;;;10.41;81.55;101393.58;1727286;81;21206;-79
2021/10/29 11:35:29;;;;;;;23.77;15.70;;;;;;;10.43;81.43;101397.88;1723348;83;21871;-80
2021/10/29 11:38:40;;;;;;;20.25;12.98;;;;;;;10.47;81.15;101400.67;1723396;83;21997;-76
2021/10/29 11:41:53;;;;;;;27.27;16.35;;;;;;;10.49;80.81;101395.05;1750232;81;21186;-80
2021/10/29 11:45:01;;;;;;;26.85;15.40;;;;;;;10.48;80.58;101390.08;1762872;81;21265;-77
2021/10/29 11:48:07;;;;;;;23.30;16.20;;;;;;;10.49;80.58;101393.20;1758493;81;21353;-80
2021/10/29 11:51:19;;;;;;;24.72;14.98;;;;;;;10.50;80.56;101394.06;1702464;84;21320;-80
2021/10/29 11:54:30;;;;;;;26.15;16.32;;;;;;;10.54;80.44;101395.48;1703385;84;21283;-76
2021/10/29 11:57:48;;;;;;;24.30;15.32;;;;;;;10.57;80.40;101397.05;1749809;81;21309;-77
2021/10/29 12:07:32;;;;;;;26.52;16.65;;;;;;;10.60;80.14;101407.70;1670792;84;21347;-76
2021/10/29 12:10:43;;;;;;;30.40;18.12;;;;;;;10.60;80.16;101395.38;1634502;87;21377;-77
2021/10/29 12:13:47;;;;;;;26.95;16.20;;;;;;;10.60;80.05;101392.14;1690975;83;21838;-80
2021/10/29 12:16:51;;;;;;;29.98;16.60;;;;;;;10.60;80.08;101407.19;1753095;81;21945;-77
2021/10/29 12:20:04;;;;;;;30.77;18.82;;;;;;;10.61;80.15;101406.67;1712720;82;21280;-79
2021/10/29 12:23:14;;;;;;;30.48;18.70;;;;;;;10.61;79.98;101409.41;1716827;83;21176;-80
2021/10/29 12:26:37;;;;;;;29.72;17.70;;;;;;;10.61;79.85;101404.80;1736183;82;21133;-77
2021/10/29 12:29:44;;;;;;;31.25;20.12;;;;;;;10.62;79.84;101407.03;1726650;82;21759;-80
2021/10/29 12:53:58;;;;;;;42.78;22.42;;;;;;;10.62;78.45;101428.91;1780742;80;21704;-76
2021/10/29 13:04:20;;;;;;;35.00;21.85;;;;;;;10.53;78.26;101429.81;1738226;82;21690;-76
2021/10/29 13:07:33;;;;;;;33.92;22.25;;;;;;;10.48;78.54;101429.75;1738028;82;21197;-76
2021/10/29 13:10:38;;;;;;;26.77;18.98;;;;;;;10.45;78.61;101428.70;1736250;82;21312;-76
2021/10/29 13:14:04;;;;;;;27.98;18.42;;;;;;;10.40;78.65;101426.91;1738285;82;21319;-76
2021/10/29 13:16:56;;;;;;;30.43;19.40;;;;;;;10.38;78.68;101433.53;1742811;81;21169;-75
2021/10/29 14:03:28;;;;;;;45.15;28.05;;;;;;;9.70;80.29;101422.14;1769585;81;21763;-75
2021/10/29 14:17:00;;;;;;;48.83;31.62;;;;;;;9.39;80.90;101430.09;1802421;79;21293;-75
2021/10/29 14:33:33;;;;;;;63.75;37.55;;;;;;;8.90;81.97;101444.98;1781350;79;21290;-75
2021/10/29 14:36:56;;;;;;;58.00;37.63;;;;;;;8.82;82.31;101449.40;1778855;79;21300;-75
2021/10/29 14:43:44;;;;;;;55.85;36.38;;;;;;;8.64;83.28;101444.58;1769908;79;21800;-76
2021/10/29 14:46:58;;;;;;;59.03;35.13;;;;;;;8.56;83.71;101437.59;1816364;79;21224;-75
2021/10/29 15:04:06;;;;;;;70.50;43.02;;;;;;;8.23;84.92;101444.09;1816613;79;21848;-75
2021/10/29 15:32:56;;;;;;;81.47;45.95;;;;;;;7.48;86.77;101468.70;1815249;79;21301;-75
2021/10/29 15:46:08;;;;;;;73.85;41.35;;;;;;;7.19;87.54;101465.19;1800532;79;21182;-76
2021/10/29 15:52:20;;;;;;;71.82;43.95;;;;;;;7.03;87.78;101469.67;1802682;79;21289;-75
2021/10/29 15:55:35;;;;;;;70.87;39.00;;;;;;;6.95;88.10;101470.78;1801318;79;21162;-75
2021/10/29 15:58:38;;;;;;;66.20;43.58;;;;;;;6.89;88.47;101475.37;1802663;79;21166;-76
2021/10/29 16:18:27;;;;;;;115.15;62.65;;;;;;;6.49;90.73;101487.20;1802699;79;21817;-76
2021/10/29 16:21:32;;;;;;;106.40;58.08;;;;;;;6.47;91.45;101492.77;1802793;79;21333;-76
2021/10/29 16:24:43;;;;;;;108.42;59.33;;;;;;;6.45;91.68;101491.17;1802153;79;21373;-76
2021/10/29 16:27:53;;;;;;;118.15;58.75;;;;;;;6.39;91.26;101493.36;1802625;79;21218;-76
2021/10/29 16:30:54;;;;;;;130.63;69.25;;;;;;;6.30;90.28;101494.57;1801386;79;21394;-76
2021/10/29 16:33:59;;;;;;;140.88;76.97;;;;;;;6.24;90.23;101499.14;1801091;79;21333;-76
2021/10/29 16:37:07;;;;;;;125.22;66.85;;;;;;;6.16;90.45;101502.44;1801204;79;21290;-76
2021/10/29 16:40:14;;;;;;;124.18;66.15;;;;;;;6.10;90.74;101512.42;1801270;79;21813;-76
2021/10/29 16:43:24;;;;;;;112.65;58.70;;;;;;;6.03;91.03;101520.20;1797903;79;21163;-76
2021/10/29 16:46:29;;;;;;;111.77;56.88;;;;;;;5.99;91.32;101515.12;1805671;79;21209;-76
2021/10/29 16:49:34;;;;;;;114.10;59.48;;;;;;;5.99;92.35;101519.19;1811656;79;21108;-76
2021/10/29 16:52:39;;;;;;;102.72;57.88;;;;;;;6.00;93.02;101520.91;1811559;79;21686;-76
2021/10/29 16:55:45;;;;;;;108.07;59.60;;;;;;;6.02;93.61;101518.94;1812149;79;21293;-76
2021/10/29 16:58:51;;;;;;;102.17;56.23;;;;;;;6.04;94.06;101524.64;1811877;79;21285;-76
2021/10/29 17:01:57;;;;;;;104.32;56.70;;;;;;;6.07;94.53;101522.16;1810510;79;21305;-76
2021/10/29 17:05:03;;;;;;;105.50;56.30;;;;;;;6.09;94.82;101528.36;1792333;79;21331;-76
2021/10/29 17:08:09;;;;;;;104.43;54.40;;;;;;;6.09;95.05;101525.15;1778976;80;21386;-76
2021/10/29 17:11:15;;;;;;;114.17;61.65;;;;;;;6.09;95.17;101530.58;1779136;80;21327;-76
2021/10/29 17:14:21;;;;;;;112.03;56.08;;;;;;;6.10;95.40;101527.37;1777575;80;21188;-76
2021/10/29 17:17:28;;;;;;;110.78;58.92;;;;;;;6.11;95.56;101532.67;1779165;80;21299;-76
2021/10/29 17:20:34;;;;;;;100.45;54.80;;;;;;;6.08;95.49;101526.63;1779138;80;21307;-76
2021/10/29 17:23:40;;;;;;;125.78;60.12;;;;;;;6.04;95.45;101526.00;1779300;80;21295;-76
2021/10/29 17:26:47;;;;;;;113.37;60.75;;;;;;;6.02;95.86;101525.26;1777485;80;21862;-76
2021/10/29 17:29:54;;;;;;;106.35;56.45;;;;;;;6.02;96.33;101529.34;1777394;80;21192;-76
2021/10/29 17:33:01;;;;;;;101.12;55.70;;;;;;;6.01;96.41;101524.86;1777999;80;21302;-76
2021/10/29 17:36:06;;;;;;;128.47;62.70;;;;;;;5.95;96.24;101526.70;1780449;80;21345;-76
2021/10/29 17:39:11;;;;;;;105.63;56.48;;;;;;;5.93;96.62;101529.14;1780458;80;21716;-76
2021/10/29 17:42:16;;;;;;;114.15;57.43;;;;;;;5.92;97.03;101530.12;1779811;80;21886;-76
2021/10/29 17:45:23;;;;;;;114.08;58.45;;;;;;;5.88;97.42;101528.99;1779068;80;21264;-76
2021/10/29 17:48:27;;;;;;;131.45;59.77;;;;;;;5.86;97.64;101543.16;1777658;80;21331;-76
2021/10/29 17:51:32;;;;;;;118.35;59.50;;;;;;;5.84;97.77;101542.92;1779310;80;22652;-76
2021/10/29 17:54:41;;;;;;;129.82;56.83;;;;;;;5.81;97.73;101538.57;1777825;80;21310;-76
2021/10/29 17:57:47;;;;;;;117.25;58.28;;;;;;;5.79;97.69;101539.69;1777986;80;21867;-76
2021/10/29 18:00:54;;;;;;;113.85;55.90;;;;;;;5.75;97.67;101543.11;1777882;79;21259;-76
2021/10/29 18:04:02;;;;;;;120.47;58.15;;;;;;;5.74;97.83;101542.75;1787588;79;21188;-76
2021/10/29 18:07:07;;;;;;;111.45;57.48;;;;;;;5.71;97.96;101540.25;1777181;80;21334;-76
2021/10/29 18:10:14;;;;;;;114.62;55.95;;;;;;;5.71;97.99;101548.89;1741788;82;21847;-76
2021/10/29 18:13:20;;;;;;;110.50;55.85;;;;;;;5.68;97.99;101545.03;1740380;82;21236;-76
2021/10/29 18:16:28;;;;;;;109.12;56.33;;;;;;;5.64;97.84;101540.31;1741561;82;21769;-76
2021/10/29 18:19:33;;;;;;;101.15;55.28;;;;;;;5.60;97.83;101547.84;1742177;82;21192;-76
2021/10/29 18:22:38;;;;;;;109.72;56.40;;;;;;;5.58;97.93;101546.21;1718352;82;21359;-76
2021/10/29 18:25:44;;;;;;;109.35;55.80;;;;;;;5.54;97.96;101550.99;1741879;82;21955;-76
2021/10/29 18:28:54;;;;;;;93.17;52.25;;;;;;;5.51;98.02;101548.53;1741547;82;21779;-76
2021/10/29 18:31:58;;;;;;;111.25;55.25;;;;;;;5.48;98.05;101554.66;1688940;84;21240;-76
2021/10/29 18:35:05;;;;;;;110.63;51.77;;;;;;;5.46;98.18;101553.89;1711171;84;21213;-76
2021/10/29 18:38:10;;;;;;;101.95;55.80;;;;;;;5.46;98.43;101562.03;1711275;84;21304;-76
2021/10/29 18:41:16;;;;;;;101.38;51.53;;;;;;;5.42;98.46;101563.27;1709613;84;21324;-76
2021/10/29 18:44:22;;;;;;;98.87;51.42;;;;;;;5.39;98.67;101562.50;1709793;84;21330;-76
2021/10/29 18:47:27;;;;;;;99.62;50.67;;;;;;;5.39;98.83;101567.92;1708390;84;21382;-76